Nashville, Pennsylvania
Current Conditions -  °F | °C
As of 3:24 PM on Wednesday 26 Nov 2014 (Local Time) from KTHV Reporting Station
Light Snow Light Snow  
Wind Chill: 28°   Ceiling: 400
Heat Index: 33°   Visibility: 0.75mi
Dew Point: 32°   Wind: 6mph
Humidity: 96%   Direction: 290°WNW
Pressure: 29.93"   Gusts: NA
Location:  39.853°N, 76.8779°W
Report Text: KTHV 262024Z AUTO 29005KT 3/4SM -SN BR BKN004 OVC009 01/00 A2993 RMK AO2 P0001 T00060000
Loading
Personal Weather Stations






























Interactive Weather Map New forecast layout! Learn more

10-Day Weather Forecast

Advertisements
Track Severe Weather on mobile